sensor_id;sensor_type;location;lat;lon;timestamp;P1;durP1;ratioP1;P2;durP2;ratioP2
44428;SDS011;30134;47.866;-4.222;2024-01-10T00:00:01;76.63;;;52.25;;
44428;SDS011;30134;47.866;-4.222;2024-01-10T00:02:27;72.53;;;50.88;;
44428;SDS011;30134;47.866;-4.222;2024-01-10T00:04:53;73.25;;;50.42;;
44428;SDS011;30134;47.866;-4.222;2024-01-10T00:07:19;71.53;;;49.17;;
44428;SDS011;30134;47.866;-4.222;2024-01-10T00:09:45;67.70;;;47.00;;
44428;SDS011;30134;47.866;-4.222;2024-01-10T00:12:11;68.43;;;47.20;;
44428;SDS011;30134;47.866;-4.222;2024-01-10T00:14:37;66.95;;;46.15;;
44428;SDS011;30134;47.866;-4.222;2024-01-10T00:17:03;62.63;;;43.33;;
44428;SDS011;30134;47.866;-4.222;2024-01-10T00:19:30;62.50;;;42.95;;
44428;SDS011;30134;47.866;-4.222;2024-01-10T00:21:56;62.78;;;42.97;;
44428;SDS011;30134;47.866;-4.222;2024-01-10T00:24:22;58.05;;;40.80;;
44428;SDS011;30134;47.866;-4.222;2024-01-10T00:26:48;58.10;;;39.97;;
44428;SDS011;30134;47.866;-4.222;2024-01-10T00:29:14;55.90;;;39.53;;
44428;SDS011;30134;47.866;-4.222;2024-01-10T00:31:40;56.13;;;38.55;;
44428;SDS011;30134;47.866;-4.222;2024-01-10T00:34:06;53.63;;;37.58;;
44428;SDS011;30134;47.866;-4.222;2024-01-10T00:36:32;54.75;;;37.08;;
44428;SDS011;30134;47.866;-4.222;2024-01-10T00:38:58;51.60;;;36.28;;
44428;SDS011;30134;47.866;-4.222;2024-01-10T00:41:24;51.17;;;35.45;;
44428;SDS011;30134;47.866;-4.222;2024-01-10T00:43:50;52.38;;;36.28;;
44428;SDS011;30134;47.866;-4.222;2024-01-10T00:46:16;49.05;;;33.38;;
44428;SDS011;30134;47.866;-4.222;2024-01-10T00:48:42;47.17;;;32.80;;
44428;SDS011;30134;47.866;-4.222;2024-01-10T00:51:08;45.13;;;32.03;;
44428;SDS011;30134;47.866;-4.222;2024-01-10T00:53:35;43.28;;;30.90;;
44428;SDS011;30134;47.866;-4.222;2024-01-10T00:56:01;42.20;;;30.45;;
44428;SDS011;30134;47.866;-4.222;2024-01-10T00:58:27;42.72;;;29.60;;
44428;SDS011;30134;47.866;-4.222;2024-01-10T01:00:53;41.55;;;28.98;;
44428;SDS011;30134;47.866;-4.222;2024-01-10T01:03:19;39.28;;;28.00;;
44428;SDS011;30134;47.866;-4.222;2024-01-10T01:05:45;39.80;;;27.30;;
44428;SDS011;30134;47.866;-4.222;2024-01-10T01:08:11;38.92;;;27.80;;
44428;SDS011;30134;47.866;-4.222;2024-01-10T01:10:36;40.60;;;27.60;;
44428;SDS011;30134;47.866;-4.222;2024-01-10T01:13:02;40.55;;;27.15;;
44428;SDS011;30134;47.866;-4.222;2024-01-10T01:15:29;36.08;;;25.02;;
44428;SDS011;30134;47.866;-4.222;2024-01-10T01:17:55;34.47;;;24.33;;
44428;SDS011;30134;47.866;-4.222;2024-01-10T01:20:21;33.05;;;23.08;;
44428;SDS011;30134;47.866;-4.222;2024-01-10T01:22:46;33.35;;;23.50;;
44428;SDS011;30134;47.866;-4.222;2024-01-10T01:25:13;31.60;;;22.45;;
44428;SDS011;30134;47.866;-4.222;2024-01-10T01:27:40;31.40;;;22.10;;
44428;SDS011;30134;47.866;-4.222;2024-01-10T01:30:08;30.30;;;22.48;;
44428;SDS011;30134;47.866;-4.222;2024-01-10T01:32:36;30.35;;;21.33;;
44428;SDS011;30134;47.866;-4.222;2024-01-10T01:35:03;27.17;;;19.60;;
44428;SDS011;30134;47.866;-4.222;2024-01-10T01:37:29;28.98;;;20.70;;
44428;SDS011;30134;47.866;-4.222;2024-01-10T01:39:55;29.25;;;20.75;;
44428;SDS011;30134;47.866;-4.222;2024-01-10T01:42:21;27.48;;;20.25;;
44428;SDS011;30134;47.866;-4.222;2024-01-10T01:44:47;27.05;;;19.98;;
44428;SDS011;30134;47.866;-4.222;2024-01-10T01:47:13;26.67;;;19.33;;
44428;SDS011;30134;47.866;-4.222;2024-01-10T01:49:39;25.17;;;18.65;;
44428;SDS011;30134;47.866;-4.222;2024-01-10T01:52:08;25.05;;;18.02;;
44428;SDS011;30134;47.866;-4.222;2024-01-10T01:54:35;24.70;;;17.38;;
44428;SDS011;30134;47.866;-4.222;2024-01-10T01:57:01;22.60;;;16.55;;
44428;SDS011;30134;47.866;-4.222;2024-01-10T01:59:28;23.95;;;17.67;;
44428;SDS011;30134;47.866;-4.222;2024-01-10T02:01:54;23.33;;;16.27;;
44428;SDS011;30134;47.866;-4.222;2024-01-10T02:04:21;22.20;;;16.13;;
44428;SDS011;30134;47.866;-4.222;2024-01-10T02:06:48;19.85;;;15.18;;
44428;SDS011;30134;47.866;-4.222;2024-01-10T02:09:14;20.30;;;15.18;;
44428;SDS011;30134;47.866;-4.222;2024-01-10T02:11:40;21.08;;;15.50;;
44428;SDS011;30134;47.866;-4.222;2024-01-10T02:14:07;18.00;;;13.80;;
44428;SDS011;30134;47.866;-4.222;2024-01-10T02:16:33;20.85;;;14.95;;
44428;SDS011;30134;47.866;-4.222;2024-01-10T02:18:59;19.20;;;14.60;;
44428;SDS011;30134;47.866;-4.222;2024-01-10T02:21:26;20.55;;;14.85;;
44428;SDS011;30134;47.866;-4.222;2024-01-10T02:23:52;18.40;;;13.73;;
44428;SDS011;30134;47.866;-4.222;2024-01-10T02:26:18;18.00;;;14.10;;
44428;SDS011;30134;47.866;-4.222;2024-01-10T02:28:44;17.90;;;12.75;;
44428;SDS011;30134;47.866;-4.222;2024-01-10T02:31:10;18.48;;;13.45;;
44428;SDS011;30134;47.866;-4.222;2024-01-10T02:33:36;16.75;;;12.48;;
44428;SDS011;30134;47.866;-4.222;2024-01-10T02:36:02;15.55;;;12.15;;
44428;SDS011;30134;47.866;-4.222;2024-01-10T02:38:29;17.65;;;12.80;;
44428;SDS011;30134;47.866;-4.222;2024-01-10T02:40:55;15.40;;;10.77;;
44428;SDS011;30134;47.866;-4.222;2024-01-10T02:43:21;16.35;;;12.10;;
44428;SDS011;30134;47.866;-4.222;2024-01-10T02:45:47;14.18;;;11.18;;
44428;SDS011;30134;47.866;-4.222;2024-01-10T02:48:13;15.98;;;11.45;;
44428;SDS011;30134;47.866;-4.222;2024-01-10T02:50:39;15.15;;;10.82;;
44428;SDS011;30134;47.866;-4.222;2024-01-10T02:53:05;15.93;;;10.98;;
44428;SDS011;30134;47.866;-4.222;2024-01-10T02:55:31;16.27;;;11.60;;
44428;SDS011;30134;47.866;-4.222;2024-01-10T02:57:57;15.68;;;11.45;;
44428;SDS011;30134;47.866;-4.222;2024-01-10T03:00:23;13.75;;;10.20;;
44428;SDS011;30134;47.866;-4.222;2024-01-10T03:02:50;14.65;;;10.75;;
44428;SDS011;30134;47.866;-4.222;2024-01-10T03:05:16;12.38;;;9.75;;
44428;SDS011;30134;47.866;-4.222;2024-01-10T03:07:42;12.25;;;9.55;;
44428;SDS011;30134;47.866;-4.222;2024-01-10T03:10:08;14.32;;;9.57;;
44428;SDS011;30134;47.866;-4.222;2024-01-10T03:12:34;14.10;;;10.30;;
44428;SDS011;30134;47.866;-4.222;2024-01-10T03:15:03;12.10;;;9.63;;
44428;SDS011;30134;47.866;-4.222;2024-01-10T03:17:33;13.48;;;9.80;;
44428;SDS011;30134;47.866;-4.222;2024-01-10T03:20:01;11.35;;;8.88;;
44428;SDS011;30134;47.866;-4.222;2024-01-10T03:22:29;11.95;;;9.10;;
44428;SDS011;30134;47.866;-4.222;2024-01-10T03:24:57;11.20;;;8.30;;
44428;SDS011;30134;47.866;-4.222;2024-01-10T03:27:23;12.32;;;9.25;;
44428;SDS011;30134;47.866;-4.222;2024-01-10T03:29:49;12.65;;;8.90;;
44428;SDS011;30134;47.866;-4.222;2024-01-10T03:32:15;12.20;;;8.63;;
44428;SDS011;30134;47.866;-4.222;2024-01-10T03:34:41;12.65;;;8.88;;
44428;SDS011;30134;47.866;-4.222;2024-01-10T03:37:07;10.82;;;7.82;;
44428;SDS011;30134;47.866;-4.222;2024-01-10T03:39:34;11.18;;;8.70;;
44428;SDS011;30134;47.866;-4.222;2024-01-10T03:42:00;10.13;;;8.18;;
44428;SDS011;30134;47.866;-4.222;2024-01-10T03:44:26;11.35;;;8.48;;
44428;SDS011;30134;47.866;-4.222;2024-01-10T03:46:52;10.10;;;7.70;;
44428;SDS011;30134;47.866;-4.222;2024-01-10T03:49:18;10.75;;;8.27;;
44428;SDS011;30134;47.866;-4.222;2024-01-10T03:51:44;9.55;;;7.35;;
44428;SDS011;30134;47.866;-4.222;2024-01-10T03:54:10;8.98;;;7.32;;
44428;SDS011;30134;47.866;-4.222;2024-01-10T03:56:36;9.93;;;7.10;;
44428;SDS011;30134;47.866;-4.222;2024-01-10T03:59:02;8.70;;;6.75;;
44428;SDS011;30134;47.866;-4.222;2024-01-10T04:01:28;9.15;;;7.40;;
44428;SDS011;30134;47.866;-4.222;2024-01-10T04:03:54;9.25;;;7.35;;
44428;SDS011;30134;47.866;-4.222;2024-01-10T04:06:20;9.13;;;6.93;;
44428;SDS011;30134;47.866;-4.222;2024-01-10T04:08:46;8.02;;;6.63;;
44428;SDS011;30134;47.866;-4.222;2024-01-10T04:11:12;9.05;;;6.85;;
44428;SDS011;30134;47.866;-4.222;2024-01-10T04:13:38;8.82;;;6.72;;
44428;SDS011;30134;47.866;-4.222;2024-01-10T04:16:04;8.82;;;7.10;;
44428;SDS011;30134;47.866;-4.222;2024-01-10T04:18:30;30.73;;;18.63;;
44428;SDS011;30134;47.866;-4.222;2024-01-10T04:20:56;75.95;;;48.15;;
44428;SDS011;30134;47.866;-4.222;2024-01-10T04:23:22;120.47;;;72.80;;
44428;SDS011;30134;47.866;-4.222;2024-01-10T04:25:48;179.32;;;111.25;;
44428;SDS011;30134;47.866;-4.222;2024-01-10T04:28:14;210.32;;;133.80;;
44428;SDS011;30134;47.866;-4.222;2024-01-10T04:30:40;218.25;;;140.18;;
44428;SDS011;30134;47.866;-4.222;2024-01-10T04:33:06;229.75;;;147.10;;
44428;SDS011;30134;47.866;-4.222;2024-01-10T04:35:32;223.65;;;143.65;;
44428;SDS011;30134;47.866;-4.222;2024-01-10T04:37:58;221.23;;;139.35;;
44428;SDS011;30134;47.866;-4.222;2024-01-10T04:40:24;207.80;;;135.88;;
44428;SDS011;30134;47.866;-4.222;2024-01-10T04:42:50;199.00;;;126.78;;
44428;SDS011;30134;47.866;-4.222;2024-01-10T04:45:16;189.48;;;123.03;;
44428;SDS011;30134;47.866;-4.222;2024-01-10T04:47:42;182.98;;;117.72;;
44428;SDS011;30134;47.866;-4.222;2024-01-10T04:50:10;174.48;;;113.05;;
44428;SDS011;30134;47.866;-4.222;2024-01-10T04:52:36;170.18;;;111.65;;
44428;SDS011;30134;47.866;-4.222;2024-01-10T04:55:02;166.25;;;108.35;;
44428;SDS011;30134;47.866;-4.222;2024-01-10T04:57:30;159.40;;;104.10;;
44428;SDS011;30134;47.866;-4.222;2024-01-10T04:59:57;156.27;;;101.43;;
44428;SDS011;30134;47.866;-4.222;2024-01-10T05:02:23;151.73;;;98.55;;
44428;SDS011;30134;47.866;-4.222;2024-01-10T05:04:49;149.57;;;97.18;;
44428;SDS011;30134;47.866;-4.222;2024-01-10T05:07:15;138.30;;;90.18;;
44428;SDS011;30134;47.866;-4.222;2024-01-10T05:09:41;135.77;;;90.03;;
44428;SDS011;30134;47.866;-4.222;2024-01-10T05:12:07;132.13;;;87.40;;
44428;SDS011;30134;47.866;-4.222;2024-01-10T05:14:33;131.77;;;86.68;;
44428;SDS011;30134;47.866;-4.222;2024-01-10T05:16:59;128.55;;;83.35;;
44428;SDS011;30134;47.866;-4.222;2024-01-10T05:19:25;127.22;;;82.35;;
44428;SDS011;30134;47.866;-4.222;2024-01-10T05:21:51;120.43;;;77.85;;
44428;SDS011;30134;47.866;-4.222;2024-01-10T05:24:17;116.22;;;74.85;;
44428;SDS011;30134;47.866;-4.222;2024-01-10T05:26:44;112.50;;;73.95;;
44428;SDS011;30134;47.866;-4.222;2024-01-10T05:29:10;110.47;;;71.35;;
44428;SDS011;30134;47.866;-4.222;2024-01-10T05:31:36;108.50;;;71.53;;
44428;SDS011;30134;47.866;-4.222;2024-01-10T05:34:02;104.00;;;68.25;;
44428;SDS011;30134;47.866;-4.222;2024-01-10T05:36:30;105.70;;;67.72;;
44428;SDS011;30134;47.866;-4.222;2024-01-10T05:38:56;95.55;;;63.22;;
44428;SDS011;30134;47.866;-4.222;2024-01-10T05:41:21;95.03;;;62.75;;
44428;SDS011;30134;47.866;-4.222;2024-01-10T05:43:48;92.10;;;60.70;;
44428;SDS011;30134;47.866;-4.222;2024-01-10T05:46:14;87.32;;;57.90;;
44428;SDS011;30134;47.866;-4.222;2024-01-10T05:48:41;90.22;;;59.78;;
44428;SDS011;30134;47.866;-4.222;2024-01-10T05:51:07;83.72;;;54.97;;
44428;SDS011;30134;47.866;-4.222;2024-01-10T05:53:33;77.68;;;52.10;;
44428;SDS011;30134;47.866;-4.222;2024-01-10T05:55:59;80.95;;;54.85;;
44428;SDS011;30134;47.866;-4.222;2024-01-10T05:58:25;82.85;;;53.95;;
44428;SDS011;30134;47.866;-4.222;2024-01-10T06:00:51;77.85;;;50.85;;
44428;SDS011;30134;47.866;-4.222;2024-01-10T06:03:17;79.97;;;52.47;;
44428;SDS011;30134;47.866;-4.222;2024-01-10T06:05:43;77.72;;;51.70;;
44428;SDS011;30134;47.866;-4.222;2024-01-10T06:08:09;75.68;;;49.72;;
44428;SDS011;30134;47.866;-4.222;2024-01-10T06:10:35;77.07;;;50.20;;
44428;SDS011;30134;47.866;-4.222;2024-01-10T06:13:01;71.28;;;47.45;;
44428;SDS011;30134;47.866;-4.222;2024-01-10T06:15:27;71.38;;;46.35;;
44428;SDS011;30134;47.866;-4.222;2024-01-10T06:17:53;66.28;;;43.67;;
44428;SDS011;30134;47.866;-4.222;2024-01-10T06:20:19;65.93;;;43.35;;
44428;SDS011;30134;47.866;-4.222;2024-01-10T06:22:45;65.97;;;43.08;;
44428;SDS011;30134;47.866;-4.222;2024-01-10T06:25:11;61.80;;;40.58;;
44428;SDS011;30134;47.866;-4.222;2024-01-10T06:27:38;61.88;;;40.95;;
44428;SDS011;30134;47.866;-4.222;2024-01-10T06:30:04;59.58;;;39.25;;
44428;SDS011;30134;47.866;-4.222;2024-01-10T06:32:32;57.08;;;39.25;;
44428;SDS011;30134;47.866;-4.222;2024-01-10T06:34:58;105.28;;;65.18;;
44428;SDS011;30134;47.866;-4.222;2024-01-10T06:37:27;163.75;;;100.07;;
44428;SDS011;30134;47.866;-4.222;2024-01-10T06:39:53;201.35;;;129.82;;
44428;SDS011;30134;47.866;-4.222;2024-01-10T06:42:19;231.10;;;148.35;;
44428;SDS011;30134;47.866;-4.222;2024-01-10T06:44:45;249.85;;;161.77;;
44428;SDS011;30134;47.866;-4.222;2024-01-10T06:47:11;252.00;;;165.60;;
44428;SDS011;30134;47.866;-4.222;2024-01-10T06:49:38;243.85;;;160.65;;
44428;SDS011;30134;47.866;-4.222;2024-01-10T06:52:04;238.07;;;158.55;;
44428;SDS011;30134;47.866;-4.222;2024-01-10T06:54:35;232.40;;;157.32;;
44428;SDS011;30134;47.866;-4.222;2024-01-10T06:57:04;222.85;;;148.35;;
44428;SDS011;30134;47.866;-4.222;2024-01-10T06:59:32;218.10;;;143.13;;
44428;SDS011;30134;47.866;-4.222;2024-01-10T07:01:58;203.77;;;137.13;;
44428;SDS011;30134;47.866;-4.222;2024-01-10T07:04:26;205.27;;;137.07;;
44428;SDS011;30134;47.866;-4.222;2024-01-10T07:06:53;193.23;;;130.77;;
44428;SDS011;30134;47.866;-4.222;2024-01-10T07:09:19;190.55;;;128.93;;
44428;SDS011;30134;47.866;-4.222;2024-01-10T07:11:48;188.80;;;123.22;;
44428;SDS011;30134;47.866;-4.222;2024-01-10T07:14:15;177.63;;;118.82;;
44428;SDS011;30134;47.866;-4.222;2024-01-10T07:16:41;177.77;;;117.85;;
44428;SDS011;30134;47.866;-4.222;2024-01-10T07:19:10;207.70;;;138.38;;
44428;SDS011;30134;47.866;-4.222;2024-01-10T07:21:39;240.32;;;156.40;;
44428;SDS011;30134;47.866;-4.222;2024-01-10T07:24:06;285.13;;;192.38;;
44428;SDS011;30134;47.866;-4.222;2024-01-10T07:26:38;298.95;;;204.13;;
44428;SDS011;30134;47.866;-4.222;2024-01-10T07:29:04;306.45;;;210.50;;
44428;SDS011;30134;47.866;-4.222;2024-01-10T07:31:33;307.30;;;214.23;;
44428;SDS011;30134;47.866;-4.222;2024-01-10T07:34:00;303.02;;;206.85;;
44428;SDS011;30134;47.866;-4.222;2024-01-10T07:36:26;301.15;;;207.82;;
44428;SDS011;30134;47.866;-4.222;2024-01-10T07:38:54;283.73;;;193.93;;
44428;SDS011;30134;47.866;-4.222;2024-01-10T07:41:23;272.58;;;186.85;;
44428;SDS011;30134;47.866;-4.222;2024-01-10T07:43:50;264.23;;;180.52;;
44428;SDS011;30134;47.866;-4.222;2024-01-10T07:46:16;252.70;;;171.27;;
44428;SDS011;30134;47.866;-4.222;2024-01-10T07:48:42;251.20;;;171.63;;
44428;SDS011;30134;47.866;-4.222;2024-01-10T07:51:08;237.68;;;160.18;;
44428;SDS011;30134;47.866;-4.222;2024-01-10T07:53:34;235.27;;;158.40;;
44428;SDS011;30134;47.866;-4.222;2024-01-10T07:56:01;234.57;;;157.85;;
44428;SDS011;30134;47.866;-4.222;2024-01-10T07:58:27;226.10;;;151.30;;
44428;SDS011;30134;47.866;-4.222;2024-01-10T08:00:53;220.63;;;148.93;;
44428;SDS011;30134;47.866;-4.222;2024-01-10T08:03:19;213.60;;;142.57;;
44428;SDS011;30134;47.866;-4.222;2024-01-10T08:05:45;204.50;;;138.93;;
44428;SDS011;30134;47.866;-4.222;2024-01-10T08:08:11;195.93;;;134.10;;
44428;SDS011;30134;47.866;-4.222;2024-01-10T08:10:38;191.20;;;129.02;;
44428;SDS011;30134;47.866;-4.222;2024-01-10T08:13:05;185.27;;;124.82;;
44428;SDS011;30134;47.866;-4.222;2024-01-10T08:15:31;181.13;;;123.70;;
44428;SDS011;30134;47.866;-4.222;2024-01-10T08:17:59;171.95;;;117.68;;
44428;SDS011;30134;47.866;-4.222;2024-01-10T08:20:28;180.05;;;122.10;;
44428;SDS011;30134;47.866;-4.222;2024-01-10T08:22:54;177.05;;;119.80;;
44428;SDS011;30134;47.866;-4.222;2024-01-10T08:25:20;186.38;;;124.35;;
44428;SDS011;30134;47.866;-4.222;2024-01-10T08:27:48;203.27;;;136.73;;
44428;SDS011;30134;47.866;-4.222;2024-01-10T08:30:14;244.70;;;157.13;;
44428;SDS011;30134;47.866;-4.222;2024-01-10T08:32:42;275.05;;;186.70;;
44428;SDS011;30134;47.866;-4.222;2024-01-10T08:35:08;292.90;;;196.57;;
44428;SDS011;30134;47.866;-4.222;2024-01-10T08:37:34;306.70;;;207.70;;
44428;SDS011;30134;47.866;-4.222;2024-01-10T08:40:00;298.73;;;205.30;;
44428;SDS011;30134;47.866;-4.222;2024-01-10T08:42:31;302.42;;;205.27;;
44428;SDS011;30134;47.866;-4.222;2024-01-10T08:44:57;290.75;;;197.93;;
44428;SDS011;30134;47.866;-4.222;2024-01-10T08:47:23;275.15;;;187.13;;
44428;SDS011;30134;47.866;-4.222;2024-01-10T08:49:50;270.48;;;184.63;;
44428;SDS011;30134;47.866;-4.222;2024-01-10T08:52:16;261.80;;;175.25;;
44428;SDS011;30134;47.866;-4.222;2024-01-10T08:54:42;249.68;;;164.90;;
44428;SDS011;30134;47.866;-4.222;2024-01-10T08:57:08;246.82;;;159.75;;
44428;SDS011;30134;47.866;-4.222;2024-01-10T08:59:34;234.02;;;156.07;;
44428;SDS011;30134;47.866;-4.222;2024-01-10T09:02:00;231.88;;;155.93;;
44428;SDS011;30134;47.866;-4.222;2024-01-10T09:04:27;230.73;;;151.50;;
44428;SDS011;30134;47.866;-4.222;2024-01-10T09:06:53;217.43;;;147.82;;
44428;SDS011;30134;47.866;-4.222;2024-01-10T09:09:19;215.05;;;145.13;;
44428;SDS011;30134;47.866;-4.222;2024-01-10T09:11:46;211.07;;;141.43;;
44428;SDS011;30134;47.866;-4.222;2024-01-10T09:14:15;202.15;;;136.70;;
44428;SDS011;30134;47.866;-4.222;2024-01-10T09:16:41;193.43;;;131.13;;
44428;SDS011;30134;47.866;-4.222;2024-01-10T09:19:07;189.77;;;129.10;;
44428;SDS011;30134;47.866;-4.222;2024-01-10T09:21:34;189.65;;;127.38;;
44428;SDS011;30134;47.866;-4.222;2024-01-10T09:24:00;184.05;;;122.72;;
44428;SDS011;30134;47.866;-4.222;2024-01-10T09:26:30;176.88;;;118.60;;
44428;SDS011;30134;47.866;-4.222;2024-01-10T09:28:56;223.00;;;140.93;;
44428;SDS011;30134;47.866;-4.222;2024-01-10T09:31:22;191.07;;;128.38;;
44428;SDS011;30134;47.866;-4.222;2024-01-10T09:33:48;190.05;;;126.95;;
44428;SDS011;30134;47.866;-4.222;2024-01-10T09:36:17;183.90;;;122.90;;
44428;SDS011;30134;47.866;-4.222;2024-01-10T09:38:43;161.57;;;109.10;;
44428;SDS011;30134;47.866;-4.222;2024-01-10T09:41:09;156.63;;;107.03;;
44428;SDS011;30134;47.866;-4.222;2024-01-10T09:43:39;147.77;;;96.65;;
44428;SDS011;30134;47.866;-4.222;2024-01-10T09:46:06;138.23;;;94.45;;
44428;SDS011;30134;47.866;-4.222;2024-01-10T09:48:33;138.93;;;90.68;;
44428;SDS011;30134;47.866;-4.222;2024-01-10T09:50:59;122.00;;;84.78;;
44428;SDS011;30134;47.866;-4.222;2024-01-10T09:53:26;124.10;;;81.05;;
44428;SDS011;30134;47.866;-4.222;2024-01-10T09:55:52;279.25;;;177.07;;
44428;SDS011;30134;47.866;-4.222;2024-01-10T09:58:25;360.45;;;241.40;;
44428;SDS011;30134;47.866;-4.222;2024-01-10T10:00:52;309.85;;;212.43;;
44428;SDS011;30134;47.866;-4.222;2024-01-10T10:03:18;323.15;;;219.82;;
44428;SDS011;30134;47.866;-4.222;2024-01-10T10:05:45;307.70;;;210.80;;
44428;SDS011;30134;47.866;-4.222;2024-01-10T10:08:12;302.15;;;203.75;;
44428;SDS011;30134;47.866;-4.222;2024-01-10T10:10:48;303.15;;;208.00;;
44428;SDS011;30134;47.866;-4.222;2024-01-10T10:13:28;293.40;;;200.45;;
44428;SDS011;30134;47.866;-4.222;2024-01-10T10:15:58;299.70;;;196.55;;
44428;SDS011;30134;47.866;-4.222;2024-01-10T10:18:28;275.02;;;187.18;;
44428;SDS011;30134;47.866;-4.222;2024-01-10T10:21:30;292.88;;;200.25;;
44428;SDS011;30134;47.866;-4.222;2024-01-10T10:23:58;328.80;;;220.70;;
44428;SDS011;30134;47.866;-4.222;2024-01-10T10:26:27;350.55;;;237.82;;
44428;SDS011;30134;47.866;-4.222;2024-01-10T10:28:54;361.88;;;250.63;;
44428;SDS011;30134;47.866;-4.222;2024-01-10T10:31:21;356.15;;;249.05;;
44428;SDS011;30134;47.866;-4.222;2024-01-10T10:33:48;341.45;;;238.40;;
44428;SDS011;30134;47.866;-4.222;2024-01-10T10:36:16;326.55;;;231.23;;
44428;SDS011;30134;47.866;-4.222;2024-01-10T10:38:42;319.65;;;223.18;;
44428;SDS011;30134;47.866;-4.222;2024-01-10T10:41:09;310.05;;;213.57;;
44428;SDS011;30134;47.866;-4.222;2024-01-10T10:43:38;293.80;;;202.35;;
44428;SDS011;30134;47.866;-4.222;2024-01-10T10:46:06;283.85;;;195.77;;
44428;SDS011;30134;47.866;-4.222;2024-01-10T10:48:41;272.48;;;185.50;;
44428;SDS011;30134;47.866;-4.222;2024-01-10T10:51:11;265.63;;;180.88;;
44428;SDS011;30134;47.866;-4.222;2024-01-10T10:53:48;258.70;;;175.40;;
44428;SDS011;30134;47.866;-4.222;2024-01-10T10:56:15;241.20;;;165.55;;
44428;SDS011;30134;47.866;-4.222;2024-01-10T10:58:42;247.60;;;167.63;;
44428;SDS011;30134;47.866;-4.222;2024-01-10T11:01:10;231.23;;;154.45;;
44428;SDS011;30134;47.866;-4.222;2024-01-10T11:03:39;220.13;;;148.40;;
44428;SDS011;30134;47.866;-4.222;2024-01-10T11:06:07;214.95;;;145.23;;
44428;SDS011;30134;47.866;-4.222;2024-01-10T11:08:38;213.55;;;145.02;;
44428;SDS011;30134;47.866;-4.222;2024-01-10T11:14:35;199.13;;;132.50;;
44428;SDS011;30134;47.866;-4.222;2024-01-10T11:20:34;189.63;;;127.18;;
44428;SDS011;30134;47.866;-4.222;2024-01-10T11:26:26;170.13;;;118.88;;
44428;SDS011;30134;47.866;-4.222;2024-01-10T11:28:52;175.82;;;118.85;;
44428;SDS011;30134;47.866;-4.222;2024-01-10T11:31:29;163.57;;;114.97;;
44428;SDS011;30134;47.866;-4.222;2024-01-10T11:33:56;164.75;;;111.50;;
44428;SDS011;30134;47.866;-4.222;2024-01-10T11:36:24;162.73;;;109.18;;
44428;SDS011;30134;47.866;-4.222;2024-01-10T11:41:27;151.10;;;103.70;;
44428;SDS011;30134;47.866;-4.222;2024-01-10T11:46:38;146.25;;;97.43;;
44428;SDS011;30134;47.866;-4.222;2024-01-10T11:49:08;135.93;;;95.45;;
44428;SDS011;30134;47.866;-4.222;2024-01-10T11:51:37;139.13;;;96.45;;
44428;SDS011;30134;47.866;-4.222;2024-01-10T11:54:03;136.68;;;92.13;;
44428;SDS011;30134;47.866;-4.222;2024-01-10T11:56:40;132.55;;;90.55;;
44428;SDS011;30134;47.866;-4.222;2024-01-10T11:59:11;121.75;;;83.63;;
44428;SDS011;30134;47.866;-4.222;2024-01-10T12:01:41;120.85;;;83.13;;
44428;SDS011;30134;47.866;-4.222;2024-01-10T12:04:08;116.90;;;81.68;;
44428;SDS011;30134;47.866;-4.222;2024-01-10T12:06:35;119.90;;;81.57;;
44428;SDS011;30134;47.866;-4.222;2024-01-10T12:09:02;112.93;;;77.50;;
44428;SDS011;30134;47.866;-4.222;2024-01-10T12:11:35;113.32;;;76.30;;
44428;SDS011;30134;47.866;-4.222;2024-01-10T12:14:01;110.82;;;75.70;;
44428;SDS011;30134;47.866;-4.222;2024-01-10T12:16:28;102.25;;;70.88;;
44428;SDS011;30134;47.866;-4.222;2024-01-10T12:18:54;102.22;;;70.57;;
44428;SDS011;30134;47.866;-4.222;2024-01-10T12:21:20;106.63;;;72.43;;
44428;SDS011;30134;47.866;-4.222;2024-01-10T12:23:46;95.55;;;65.90;;
44428;SDS011;30134;47.866;-4.222;2024-01-10T12:26:13;91.63;;;65.78;;
44428;SDS011;30134;47.866;-4.222;2024-01-10T12:28:40;95.53;;;65.93;;
44428;SDS011;30134;47.866;-4.222;2024-01-10T12:31:07;91.25;;;63.03;;
44428;SDS011;30134;47.866;-4.222;2024-01-10T12:33:34;89.03;;;63.17;;
44428;SDS011;30134;47.866;-4.222;2024-01-10T12:36:06;86.57;;;60.65;;
44428;SDS011;30134;47.866;-4.222;2024-01-10T12:38:34;82.57;;;58.95;;
44428;SDS011;30134;47.866;-4.222;2024-01-10T12:41:03;86.10;;;59.63;;
44428;SDS011;30134;47.866;-4.222;2024-01-10T12:43:30;84.45;;;58.50;;
44428;SDS011;30134;47.866;-4.222;2024-01-10T12:46:12;79.25;;;55.25;;
44428;SDS011;30134;47.866;-4.222;2024-01-10T12:48:57;79.38;;;54.03;;
44428;SDS011;30134;47.866;-4.222;2024-01-10T12:51:30;77.15;;;53.53;;
44428;SDS011;30134;47.866;-4.222;2024-01-10T12:53:59;79.03;;;53.92;;
44428;SDS011;30134;47.866;-4.222;2024-01-10T12:56:26;74.15;;;51.00;;
44428;SDS011;30134;47.866;-4.222;2024-01-10T12:58:53;73.90;;;51.65;;
44428;SDS011;30134;47.866;-4.222;2024-01-10T13:01:22;72.28;;;49.42;;
44428;SDS011;30134;47.866;-4.222;2024-01-10T13:03:49;68.75;;;48.47;;
44428;SDS011;30134;47.866;-4.222;2024-01-10T13:06:16;66.13;;;45.67;;
44428;SDS011;30134;47.866;-4.222;2024-01-10T13:08:44;63.55;;;45.22;;
44428;SDS011;30134;47.866;-4.222;2024-01-10T13:11:11;62.88;;;45.58;;
44428;SDS011;30134;47.866;-4.222;2024-01-10T13:13:39;63.00;;;44.92;;
44428;SDS011;30134;47.866;-4.222;2024-01-10T13:16:05;62.40;;;42.92;;
44428;SDS011;30134;47.866;-4.222;2024-01-10T13:18:31;59.78;;;41.08;;
44428;SDS011;30134;47.866;-4.222;2024-01-10T13:20:58;60.25;;;41.58;;
44428;SDS011;30134;47.866;-4.222;2024-01-10T13:23:24;56.45;;;40.97;;
44428;SDS011;30134;47.866;-4.222;2024-01-10T13:25:51;56.08;;;39.38;;
44428;SDS011;30134;47.866;-4.222;2024-01-10T13:28:19;53.35;;;38.35;;
44428;SDS011;30134;47.866;-4.222;2024-01-10T13:30:46;54.70;;;37.63;;
44428;SDS011;30134;47.866;-4.222;2024-01-10T13:33:12;52.13;;;36.85;;
44428;SDS011;30134;47.866;-4.222;2024-01-10T13:35:38;53.25;;;35.97;;
44428;SDS011;30134;47.866;-4.222;2024-01-10T13:38:05;55.22;;;37.10;;
44428;SDS011;30134;47.866;-4.222;2024-01-10T13:40:31;59.78;;;36.15;;
44428;SDS011;30134;47.866;-4.222;2024-01-10T13:43:03;77.57;;;51.53;;
44428;SDS011;30134;47.866;-4.222;2024-01-10T13:45:31;96.95;;;64.47;;
44428;SDS011;30134;47.866;-4.222;2024-01-10T13:47:57;117.35;;;78.45;;
44428;SDS011;30134;47.866;-4.222;2024-01-10T13:50:25;147.18;;;98.38;;
44428;SDS011;30134;47.866;-4.222;2024-01-10T13:52:52;291.42;;;185.80;;
44428;SDS011;30134;47.866;-4.222;2024-01-10T13:55:19;249.15;;;167.80;;
44428;SDS011;30134;47.866;-4.222;2024-01-10T13:57:45;237.20;;;156.48;;
44428;SDS011;30134;47.866;-4.222;2024-01-10T14:00:11;222.60;;;146.65;;
44428;SDS011;30134;47.866;-4.222;2024-01-10T14:02:40;210.02;;;142.25;;
44428;SDS011;30134;47.866;-4.222;2024-01-10T14:05:09;210.13;;;137.55;;
44428;SDS011;30134;47.866;-4.222;2024-01-10T14:07:35;195.75;;;129.25;;
44428;SDS011;30134;47.866;-4.222;2024-01-10T14:10:01;182.07;;;120.57;;
44428;SDS011;30134;47.866;-4.222;2024-01-10T14:12:28;171.88;;;114.90;;